createdAt,value
2019-03-12T00:02:42.029Z,20.57
2019-03-12T00:07:45.633Z,14.50
2019-03-12T00:12:49.954Z,7.37
2019-03-12T00:17:53.984Z,7.05
2019-03-12T00:22:57.411Z,15.45
2019-03-12T00:28:02.021Z,13.35
2019-03-12T00:33:06.220Z,10.85
2019-03-12T00:38:09.827Z,13.13
2019-03-12T00:43:14.178Z,17.82
2019-03-12T00:48:18.857Z,14.20
2019-03-12T00:53:22.317Z,19.10
2019-03-12T00:58:25.609Z,11.75
2019-03-12T01:03:29.064Z,15.50
2019-03-12T01:08:32.841Z,10.35
2019-03-12T01:13:36.958Z,14.40
2019-03-12T01:18:41.272Z,6.72
2019-03-12T01:23:44.668Z,10.95
2019-03-12T01:28:49.665Z,8.48
2019-03-12T01:33:53.032Z,12.95
2019-03-12T01:38:56.580Z,13.98
2019-03-12T01:44:00.154Z,5.45
2019-03-12T01:49:03.658Z,11.08
2019-03-12T01:54:07.387Z,11.97
2019-03-12T01:59:11.704Z,14.18
2019-03-12T02:04:15.152Z,11.40
2019-03-12T02:09:18.778Z,9.45
2019-03-12T02:14:32.348Z,5.92
2019-03-12T02:19:36.045Z,6.85
2019-03-12T02:24:52.067Z,7.78
2019-03-12T02:29:46.661Z,9.70
2019-03-12T02:34:50.030Z,7.72
2019-03-12T02:39:53.527Z,11.35
2019-03-12T02:44:56.998Z,12.80
2019-03-12T02:50:00.654Z,8.78
2019-03-12T02:55:04.853Z,6.60
2019-03-12T03:00:14.794Z,11.60
2019-03-12T03:05:18.273Z,8.40
2019-03-12T03:10:22.673Z,7.62
2019-03-12T03:15:30.088Z,6.62
2019-03-12T03:20:35.479Z,13.08
2019-03-12T03:25:39.012Z,12.23
2019-03-12T03:30:43.162Z,4.30
2019-03-12T03:35:46.505Z,5.03
2019-03-12T03:40:50.938Z,5.47
2019-03-12T03:45:54.512Z,5.33
2019-03-12T03:50:58.270Z,9.25
2019-03-12T03:56:02.250Z,4.85
2019-03-12T04:01:05.633Z,4.95
2019-03-12T04:06:09.032Z,7.20
2019-03-12T04:11:12.944Z,6.10
2019-03-12T04:16:16.450Z,4.78
2019-03-12T04:21:21.372Z,7.12
2019-03-12T04:26:24.945Z,8.58
2019-03-12T04:31:28.237Z,7.58
2019-03-12T04:36:31.920Z,5.95
2019-03-12T04:41:40.938Z,4.80
2019-03-12T04:46:44.282Z,6.30
2019-03-12T04:51:50.857Z,6.95
2019-03-12T04:56:54.195Z,3.07
2019-03-12T05:01:57.570Z,5.62
2019-03-12T05:07:01.273Z,7.70
2019-03-12T05:12:04.808Z,13.40
2019-03-12T05:17:16.601Z,7.53
2019-03-12T05:22:22.592Z,5.33
2019-03-12T05:27:25.960Z,9.20
2019-03-12T05:32:29.360Z,8.33
2019-03-12T05:37:32.730Z,5.25
2019-03-12T05:42:36.455Z,5.50
2019-03-12T05:47:40.103Z,5.85
2019-03-12T05:52:44.185Z,8.98
2019-03-12T05:57:47.858Z,7.00
2019-03-12T06:02:52.558Z,7.95
2019-03-12T06:07:56.076Z,9.08
2019-03-12T06:12:59.502Z,5.10
2019-03-12T06:18:02.929Z,7.65
2019-03-12T06:23:09.130Z,10.25
2019-03-12T06:28:12.547Z,10.05
2019-03-12T06:33:24.198Z,9.50
2019-03-12T06:38:49.566Z,11.90
2019-03-12T06:44:03.278Z,9.90
2019-03-12T06:49:41.717Z,11.55
2019-03-12T06:55:11.392Z,4.03
2019-03-12T07:00:22.959Z,6.03
2019-03-12T07:05:44.848Z,4.55
2019-03-12T07:11:10.758Z,5.87
2019-03-12T07:16:43.119Z,7.22
2019-03-12T07:22:05.041Z,6.35
2019-03-12T07:27:34.261Z,7.25
2019-03-12T07:32:56.478Z,3.30
2019-03-12T07:38:09.384Z,4.33
2019-03-12T07:43:39.306Z,4.35
2019-03-12T07:49:02.305Z,3.33
2019-03-12T07:54:21.789Z,3.77
2019-03-12T07:59:36.857Z,3.75
2019-03-12T08:04:52.764Z,2.87
2019-03-12T08:10:28.468Z,4.30
2019-03-12T08:15:44.648Z,3.58
2019-03-12T08:20:59.755Z,2.62
2019-03-12T08:26:22.819Z,3.12
2019-03-12T08:31:45.239Z,2.42
2019-03-12T08:36:56.872Z,1.90
2019-03-12T08:42:23.898Z,1.72
2019-03-12T08:47:46.144Z,2.72
2019-03-12T08:53:27.008Z,2.00
2019-03-12T08:58:52.839Z,3.40
2019-03-12T09:04:18.816Z,2.58
2019-03-12T09:09:53.920Z,2.58
2019-03-12T09:15:20.918Z,2.85
2019-03-12T09:20:52.567Z,2.63
2019-03-12T09:26:03.383Z,1.72
2019-03-12T09:31:23.145Z,1.92
2019-03-12T09:36:49.271Z,2.58
2019-03-12T09:42:13.710Z,3.60
2019-03-12T09:47:33.141Z,2.12
2019-03-12T09:52:46.053Z,3.80
2019-03-12T09:57:57.632Z,2.92
2019-03-12T10:03:16.587Z,1.60
2019-03-12T10:08:48.624Z,2.70
2019-03-12T10:14:25.640Z,3.12
2019-03-12T10:19:47.688Z,4.20
2019-03-12T10:25:09.360Z,5.00
2019-03-12T10:30:50.009Z,4.92
2019-03-12T10:36:05.247Z,3.15
2019-03-12T10:41:39.509Z,1.98
2019-03-12T10:46:58.336Z,3.42
2019-03-12T10:52:02.132Z,4.22
2019-03-12T10:57:06.403Z,3.00
2019-03-12T11:02:09.680Z,3.08
2019-03-12T11:07:16.738Z,2.50
2019-03-12T11:12:19.463Z,2.05
2019-03-12T11:17:22.792Z,5.78
2019-03-12T11:22:26.481Z,4.97
2019-03-12T11:27:29.884Z,6.47
2019-03-12T11:32:33.568Z,2.95
2019-03-12T11:37:37.269Z,3.80
2019-03-12T11:42:41.146Z,3.77
2019-03-12T11:47:44.529Z,3.05
2019-03-12T11:52:54.611Z,5.58
2019-03-12T11:57:54.295Z,2.35
2019-03-12T12:03:00.372Z,2.98
2019-03-12T12:08:03.130Z,3.27
2019-03-12T12:13:08.001Z,1.87
2019-03-12T12:18:12.039Z,5.22
2019-03-12T12:23:15.437Z,6.08
2019-03-12T12:28:19.578Z,4.70
2019-03-12T12:33:23.109Z,3.52
2019-03-12T12:38:26.785Z,5.33
2019-03-12T12:43:30.459Z,6.35
2019-03-12T12:48:34.319Z,5.15
2019-03-12T12:53:38.439Z,7.97
2019-03-12T12:58:43.664Z,8.38
2019-03-12T13:03:46.994Z,4.42
2019-03-12T13:08:50.342Z,6.42
2019-03-12T13:13:53.701Z,5.80
2019-03-12T13:18:57.541Z,7.15
2019-03-12T13:24:01.441Z,3.02
2019-03-12T13:29:05.934Z,5.20
2019-03-12T13:34:09.672Z,6.25
2019-03-12T13:39:14.208Z,6.75
2019-03-12T13:44:18.095Z,8.80
2019-03-12T13:49:21.807Z,8.30
2019-03-12T13:54:25.293Z,5.72
2019-03-12T13:59:29.558Z,5.60
2019-03-12T14:04:33.118Z,5.15
2019-03-12T14:09:36.662Z,4.45
2019-03-12T14:14:40.518Z,5.95
2019-03-12T14:19:44.648Z,6.42
2019-03-12T14:24:47.966Z,3.05
2019-03-12T14:29:51.744Z,5.65
2019-03-12T14:34:55.340Z,8.95
2019-03-12T14:39:58.666Z,7.35
2019-03-12T14:45:09.892Z,11.48
2019-03-12T14:50:13.485Z,11.53
2019-03-12T14:55:16.784Z,6.72
2019-03-12T15:00:23.550Z,10.88
2019-03-12T15:05:26.809Z,5.70
2019-03-12T15:10:30.137Z,8.70
2019-03-12T15:15:33.489Z,8.83
2019-03-12T15:20:37.817Z,8.28
2019-03-12T15:25:41.190Z,10.55
2019-03-12T15:30:44.500Z,11.28
2019-03-12T15:35:47.865Z,10.03
2019-03-12T15:40:51.452Z,8.65
2019-03-12T15:45:54.738Z,8.95
2019-03-12T15:50:58.094Z,9.78
2019-03-12T15:56:01.460Z,9.05
2019-03-12T16:01:05.552Z,10.78
2019-03-12T16:06:08.838Z,10.70
2019-03-12T16:11:13.567Z,8.85
2019-03-12T16:16:17.525Z,8.13
2019-03-12T16:21:21.189Z,8.25
2019-03-12T16:26:25.132Z,7.80
2019-03-12T16:31:28.771Z,8.90
2019-03-12T16:36:33.222Z,8.50
2019-03-12T16:41:36.776Z,8.80
2019-03-12T16:46:40.864Z,9.83
2019-03-12T16:51:44.228Z,10.60
2019-03-12T16:56:47.662Z,10.72
2019-03-12T17:01:51.759Z,9.98
2019-03-12T17:06:55.338Z,10.93
2019-03-12T17:11:58.885Z,13.55
2019-03-12T17:17:02.650Z,14.30
2019-03-12T17:22:05.986Z,14.98
2019-03-12T17:27:10.517Z,15.50
2019-03-12T17:32:13.780Z,15.68
2019-03-12T17:37:17.114Z,17.40
2019-03-12T17:42:20.471Z,18.17
2019-03-12T17:47:24.043Z,19.67
2019-03-12T17:52:28.716Z,20.08
2019-03-12T17:57:32.098Z,20.57
2019-03-12T18:02:42.432Z,19.98
2019-03-12T18:07:40.925Z,19.60
2019-03-12T18:12:44.629Z,21.65
2019-03-12T18:17:49.920Z,22.45
2019-03-12T18:22:53.605Z,21.15
2019-03-12T18:27:57.395Z,20.97
2019-03-12T18:33:00.942Z,23.62
2019-03-12T18:38:04.429Z,21.82
2019-03-12T18:43:07.825Z,21.87
2019-03-12T18:48:11.500Z,22.70
2019-03-12T18:53:16.004Z,29.10
2019-03-12T18:58:20.517Z,32.58
2019-03-12T19:03:25.133Z,35.25
2019-03-12T19:08:28.509Z,36.58
2019-03-12T19:13:52.822Z,36.45
2019-03-12T19:18:56.278Z,33.23
2019-03-12T19:23:59.630Z,29.07
2019-03-12T19:29:02.817Z,31.65
2019-03-12T19:34:16.472Z,31.35
2019-03-12T19:39:20.244Z,26.20
2019-03-12T19:44:23.581Z,26.00
2019-03-12T19:49:26.851Z,20.05
2019-03-12T19:54:30.353Z,21.93
2019-03-12T19:59:36.639Z,20.88
2019-03-12T20:04:47.108Z,20.53
2019-03-12T20:10:39.062Z,22.05
2019-03-12T20:16:41.602Z,22.58
2019-03-12T20:22:47.296Z,22.58
2019-03-12T20:28:24.574Z,21.07
2019-03-12T20:34:17.926Z,18.90
2019-03-12T20:40:20.790Z,24.47
2019-03-12T20:46:04.966Z,25.08
2019-03-12T20:52:09.685Z,25.55
2019-03-12T20:58:27.647Z,28.25
2019-03-12T21:04:45.842Z,27.98
2019-03-12T21:10:42.505Z,27.17
2019-03-12T21:16:48.485Z,27.60
2019-03-12T21:22:29.029Z,25.35
2019-03-12T21:28:34.513Z,28.15
2019-03-12T21:33:37.886Z,25.72
2019-03-12T21:38:41.745Z,29.07
2019-03-12T21:43:45.121Z,29.98
2019-03-12T21:48:48.724Z,30.40
2019-03-12T21:53:53.762Z,30.15
2019-03-12T21:58:57.685Z,29.75
2019-03-12T22:04:01.849Z,27.73
2019-03-12T22:09:05.891Z,28.25
2019-03-12T22:14:09.574Z,19.57
2019-03-12T22:19:12.890Z,25.80
2019-03-12T22:24:19.346Z,25.35
2019-03-12T22:29:23.144Z,25.27
2019-03-12T22:34:30.187Z,25.10
2019-03-12T22:39:34.015Z,22.57
2019-03-12T22:44:37.625Z,25.37
2019-03-12T22:49:41.403Z,21.87
2019-03-12T22:54:45.690Z,24.63
2019-03-12T22:59:49.054Z,20.80
2019-03-12T23:04:52.852Z,22.22
2019-03-12T23:09:56.361Z,19.62
2019-03-12T23:15:00.915Z,21.42
2019-03-12T23:20:07.198Z,20.43
2019-03-12T23:25:10.982Z,20.50
2019-03-12T23:30:15.219Z,18.77
2019-03-12T23:35:18.614Z,22.95
2019-03-12T23:40:23.536Z,21.68
2019-03-12T23:45:27.111Z,23.30
2019-03-12T23:50:30.606Z,23.83
2019-03-12T23:55:34.054Z,23.77
